^^
Station Historical Data
Daily Summary for September 29, 2017 Units:  English    Metric   Both
« Previous Day
Next Day »
Daily Weekly Monthly Yearly Custom
  High: Low: Average:
Temperature: 65.8 °F 49.4 °F 57.1 °F
Dew Point: 48.3 °F 43.9 °F 46.5 °F
Humidity: 89% 51% 69%
Wind Speed: 3.0mph 0.0mph 0.4mph
Wind Gust: 12.0mph - -
Wind- - SW
Pressure: 30.08 in 29.96 in -
Precipitation: 0.00 in    
Historical Graphs
 
 
Tabular Data for September 29, 2017
Time Temperature Dew Point Pressure Wind Wind Speed Wind Gust Humidity Rainfall Rate (Hourly) Conditions
00:00 58.5 °F 46.8 °F 29.96 in NNW 3.0 mph 12.0 mph 65% 0.00 in CLR
00:15 58.2 °F 46.5 °F 29.97 in NNW 3.0 mph 8.0 mph 65% 0.00 in CLR
00:30 58.0 °F 45.9 °F 29.97 in NW 1.0 mph 7.0 mph 64% 0.00 in CLR
00:45 57.8 °F 46.1 °F 29.97 in NNW 1.0 mph 10.0 mph 65% 0.00 in CLR
01:00 57.6 °F 45.9 °F 29.98 in Calm   10.0 mph 65% 0.00 in CLR
01:15 57.2 °F 45.9 °F 29.98 in NNW 2.0 mph 7.0 mph 66% 0.00 in CLR
01:30 56.4 °F 45.5 °F 29.99 in Calm   4.0 mph 67% 0.00 in CLR
01:45 55.5 °F 45.5 °F 29.99 in Calm   2.0 mph 69% 0.00 in CLR
02:00 54.8 °F 45.2 °F 29.99 in Calm     70% 0.00 in CLR
02:15 54.2 °F 45.4 °F 30.00 in Calm   2.0 mph 72% 0.00 in CLR
02:30 54.1 °F 45.3 °F 30.00 in Calm   1.0 mph 72% 0.00 in CLR
02:45 53.9 °F 45.4 °F 30.00 in Calm   1.0 mph 73% 0.00 in CLR
03:00 53.6 °F 45.8 °F 30.00 in NE 1.0 mph 6.0 mph 75% 0.00 in CLR
03:15 53.3 °F 45.9 °F 30.00 in Calm   3.0 mph 76% 0.00 in CLR
03:30 52.5 °F 45.8 °F 30.00 in Calm     78% 0.00 in CLR
03:45 51.5 °F 45.9 °F 30.00 in Calm     81% 0.00 in CLR
04:00 50.9 °F 45.9 °F 30.01 in Calm     83% 0.00 in CLR
04:15 50.6 °F 45.9 °F 30.00 in Calm     84% 0.00 in CLR
04:30 50.1 °F 46.1 °F 30.01 in Calm     86% 0.00 in CLR
04:45 51.4 °F 47.0 °F 30.01 in Calm   2.0 mph 85% 0.00 in CLR
05:00 51.1 °F 46.7 °F 30.01 in Calm   1.0 mph 85% 0.00 in CLR
05:15 51.7 °F 47.3 °F 30.01 in Calm   1.0 mph 85% 0.00 in CLR
05:30 51.3 °F 47.0 °F 30.02 in Calm     85% 0.00 in CLR
05:45 50.4 °F 46.7 °F 30.02 in Calm     87% 0.00 in CLR
06:00 50.4 °F 46.7 °F 30.02 in Calm   1.0 mph 87% 0.00 in CLR
06:15 50.2 °F 46.8 °F 30.02 in Calm     88% 0.00 in CLR
06:30 49.9 °F 46.8 °F 30.03 in Calm     89% 0.00 in CLR
06:45 49.5 °F 46.4 °F 30.04 in Calm     89% 0.00 in CLR
07:00 49.5 °F 46.4 °F 30.05 in Calm     89% 0.00 in CLR
07:15 49.6 °F 46.2 °F 30.05 in Calm     88% 0.00 in FEW
07:30 49.4 °F 45.7 °F 30.05 in Calm     87% 0.00 in FEW
07:45 49.7 °F 45.4 °F 30.05 in Calm     85% 0.00 in FEW
08:00 50.5 °F 45.6 °F 30.06 in Calm     83% 0.00 in FEW
08:15 51.7 °F 45.4 °F 30.06 in Calm     79% 0.00 in FEW
08:30 52.8 °F 44.8 °F 30.06 in Calm   3.0 mph 74% 0.00 in FEW
08:45 53.8 °F 43.9 °F 30.07 in North 2.0 mph 5.0 mph 69% 0.00 in FEW
09:00 55.1 °F 44.7 °F 30.07 in Calm   3.0 mph 68% 0.00 in FEW
09:15 55.9 °F 44.7 °F 30.08 in Calm   4.0 mph 66% 0.00 in FEW
09:30 56.6 °F 44.9 °F 30.08 in Calm   8.0 mph 65% 0.00 in FEW
09:45 57.4 °F 45.4 °F 30.08 in Calm   3.0 mph 64% 0.00 in FEW
10:00 57.6 °F 45.5 °F 30.08 in Calm   4.0 mph 64% 0.00 in FEW
10:15 58.4 °F 45.0 °F 30.08 in East 1.0 mph 5.0 mph 61% 0.00 in FEW
10:30 59.8 °F 46.3 °F 30.08 in Calm   3.0 mph 61% 0.00 in FEW
10:45 59.7 °F 46.2 °F 30.07 in NW 1.0 mph 5.0 mph 61% 0.00 in FEW
11:00 60.0 °F 45.6 °F 30.07 in Calm   6.0 mph 59% 0.00 in FEW
11:15 60.7 °F 46.3 °F 30.07 in Calm   7.0 mph 59% 0.00 in SCT
11:30 61.4 °F 46.5 °F 30.07 in Calm   6.0 mph 58% 0.00 in SCT
11:45 61.3 °F 46.4 °F 30.06 in WSW 2.0 mph 6.0 mph 58% 0.00 in SCT
12:00 61.1 °F 46.2 °F 30.06 in WNW 3.0 mph 9.0 mph 58% 0.00 in SCT
12:15 61.9 °F 46.5 °F 30.06 in NE 2.0 mph 7.0 mph 57% 0.00 in BKN
12:30 62.2 °F 46.3 °F 30.05 in SSW 1.0 mph 6.0 mph 56% 0.00 in BKN
12:45 62.2 °F 46.8 °F 30.05 in SW 2.0 mph 6.0 mph 57% 0.00 in BKN
12:59 62.4 °F 46.5 °F 30.05 in SSW 2.0 mph 6.0 mph 56% 0.00 in BKN
13:30 63.0 °F 47.1 °F 30.04 in Calm   6.0 mph 56% 0.00 in BKN
13:45 62.9 °F 47.0 °F 30.03 in South 1.0 mph 6.0 mph 56% 0.00 in BKN
13:59 63.7 °F 47.2 °F 30.03 in SSW 2.0 mph 5.0 mph 55% 0.00 in BKN
14:15 64.0 °F 47.5 °F 30.02 in WSW 2.0 mph 4.0 mph 55% 0.00 in BKN
14:30 63.4 °F 47.9 °F 30.02 in SW 1.0 mph 4.0 mph 57% 0.00 in BKN
14:45 63.1 °F 47.6 °F 30.02 in Calm   5.0 mph 57% 0.00 in BKN
15:00 63.3 °F 47.3 °F 30.02 in Calm   7.0 mph 56% 0.00 in BKN
15:15 63.7 °F 48.2 °F 30.01 in SW 1.0 mph 6.0 mph 57% 0.00 in BKN
15:30 63.6 °F 48.1 °F 30.01 in NW 1.0 mph 5.0 mph 57% 0.00 in BKN
15:45 64.9 °F 47.8 °F 30.01 in Calm   5.0 mph 54% 0.00 in BKN
16:00 65.4 °F 47.3 °F 30.01 in SW 1.0 mph 5.0 mph 52% 0.00 in BKN
16:15 64.0 °F 47.0 °F 30.01 in Calm   3.0 mph 54% 0.00 in SCT
16:30 64.5 °F 47.0 °F 30.01 in Calm   2.0 mph 53% 0.00 in SCT
16:45 63.9 °F 46.9 °F 30.01 in Calm   3.0 mph 54% 0.00 in SCT
17:00 63.9 °F 46.4 °F 30.01 in West 1.0 mph 3.0 mph 53% 0.00 in SCT
17:15 64.8 °F 47.3 °F 30.01 in Calm   5.0 mph 53% 0.00 in SCT
17:30 65.7 °F 47.0 °F 30.01 in NNW 1.0 mph 7.0 mph 51% 0.00 in SCT
17:45 65.2 °F 47.7 °F 30.01 in Calm   4.0 mph 53% 0.00 in SCT
18:00 65.8 °F 47.1 °F 30.01 in SSW 2.0 mph 5.0 mph 51% 0.00 in SCT
18:15 65.1 °F 46.5 °F 30.02 in SSW 1.0 mph 5.0 mph 51% 0.00 in FEW
18:30 63.9 °F 46.4 °F 30.02 in Calm   3.0 mph 53% 0.00 in FEW
18:45 62.3 °F 46.4 °F 30.02 in Calm   3.0 mph 56% 0.00 in FEW
19:00 60.9 °F 46.5 °F 30.02 in Calm   1.0 mph 59% 0.00 in FEW
19:15 60.2 °F 46.3 °F 30.02 in Calm   2.0 mph 60% 0.00 in FEW
19:30 59.6 °F 46.6 °F 30.02 in Calm     62% 0.00 in FEW
19:45 58.7 °F 46.5 °F 30.03 in Calm   2.0 mph 64% 0.00 in FEW
20:00 58.1 °F 47.6 °F 30.03 in Calm   1.0 mph 68% 0.00 in FEW
20:15 56.6 °F 47.6 °F 30.03 in Calm     72% 0.00 in CLR
20:30 55.6 °F 47.8 °F 30.04 in Calm     75% 0.00 in CLR
20:45 54.8 °F 47.4 °F 30.04 in Calm     76% 0.00 in CLR
21:00 53.9 °F 47.5 °F 30.04 in Calm     79% 0.00 in CLR
21:15 53.0 °F 47.7 °F 30.04 in Calm     82% 0.00 in CLR
21:30 52.8 °F 48.1 °F 30.04 in Calm     84% 0.00 in CLR
21:45 52.7 °F 48.0 °F 30.04 in Calm     84% 0.00 in CLR
22:00 52.4 °F 48.0 °F 30.04 in Calm     85% 0.00 in CLR
22:15 52.7 °F 48.3 °F 30.04 in Calm     85% 0.00 in CLR
22:30 52.4 °F 48.0 °F 30.04 in Calm     85% 0.00 in CLR
22:45 53.0 °F 47.3 °F 30.05 in Calm     81% 0.00 in CLR
22:59 53.6 °F 47.6 °F 30.04 in Calm     80% 0.00 in CLR
23:15 53.0 °F 46.7 °F 30.04 in Calm     79% 0.00 in FEW
23:30 52.7 °F 47.0 °F 30.04 in Calm     81% 0.00 in FEW
23:45 53.5 °F 47.5 °F 30.03 in Calm     80% 0.00 in FEW
TarryTown NY Weather
Compliments of Weather Underground - 1.5 mb